Time;durP1;ratioP1;P1;durP2;ratioP2;P2;SDS_P1;SDS_P2;PMS_P1;PMS_P2;Temp;Humidity;BMP_temperature;BMP_pressure;BME280_temperature;BME280_humidity;BME280_pressure;Samples;Min_cycle;Max_cycle;Signal;HPM_P1;HPM_P2
2022/08/10 00:01:38;;;;;;;;;;;16.70;66.90;;;;;;4915377;29;19911;-85
2022/08/10 00:04:04;;;;;;;;;;;16.70;67.50;;;;;;4925967;29;19918;-85
2022/08/10 00:06:30;;;;;;;;;;;16.70;67.50;;;;;;4917125;29;19918;-86
2022/08/10 00:08:55;;;;;;;;;;;16.60;67.30;;;;;;4933710;29;20268;-85
2022/08/10 00:11:21;;;;;;;;;;;16.60;67.20;;;;;;4922720;29;20390;-86
2022/08/10 00:13:47;;;;;;;;;;;16.60;67.50;;;;;;4914832;29;19926;-86
2022/08/10 00:16:12;;;;;;;;;;;16.50;67.80;;;;;;4914565;29;19915;-86
2022/08/10 00:18:38;;;;;;;;;;;16.50;68.10;;;;;;4934451;29;19914;-86
2022/08/10 00:21:05;;;;;;;;;;;16.50;68.00;;;;;;4945645;29;19914;-84
2022/08/10 00:23:31;;;;;;;;;;;16.40;68.10;;;;;;4914313;29;19959;-85
2022/08/10 00:25:56;;;;;;;;;;;16.40;68.70;;;;;;4947271;29;19910;-85
2022/08/10 00:28:22;;;;;;;;;;;16.30;69.10;;;;;;4931557;29;19922;-86
2022/08/10 00:30:48;;;;;;;;;;;16.30;68.70;;;;;;4936453;29;19914;-86
2022/08/10 00:33:14;;;;;;;;;;;16.30;68.70;;;;;;4916879;29;19935;-87
2022/08/10 00:35:39;;;;;;;;;;;16.30;69.10;;;;;;4946567;29;19915;-86
2022/08/10 00:38:05;;;;;;;;;;;16.20;69.00;;;;;;4900868;29;20375;-85
2022/08/10 00:40:31;;;;;;;;;;;16.10;69.20;;;;;;4934269;29;20097;-85
2022/08/10 00:42:56;;;;;;;;;;;16.20;69.20;;;;;;4935008;29;19915;-86
2022/08/10 00:45:22;;;;;;;;;;;16.10;69.50;;;;;;4949944;29;19919;-85
2022/08/10 00:47:47;;;;;;;;;;;16.00;69.60;;;;;;4919090;29;19914;-86
2022/08/10 00:50:16;;;;;;;;;;;16.10;69.60;;;;;;4918443;29;20418;-85
2022/08/10 00:52:42;;;;;;;;;;;16.10;69.50;;;;;;4916783;29;19914;-87
2022/08/10 00:55:08;;;;;;;;;;;16.00;69.60;;;;;;4930829;29;19938;-86
2022/08/10 00:57:34;;;;;;;;;;;16.00;69.70;;;;;;4929939;29;20379;-84
2022/08/10 01:00:02;;;;;;;;;;;16.00;70.10;;;;;;4915379;29;19918;-85
2022/08/10 01:02:29;;;;;;;;;;;15.90;70.40;;;;;;4929950;29;19914;-86
2022/08/10 01:04:55;;;;;;;;;;;15.90;70.90;;;;;;4933087;29;20047;-85
2022/08/10 01:07:29;;;;;;;;;;;15.80;70.60;;;;;;4914829;29;20413;-87
2022/08/10 01:09:55;;;;;;;;;;;15.80;70.30;;;;;;4926492;29;19911;-86
2022/08/10 01:12:30;;;;;;;;;;;15.80;70.60;;;;;;4928909;29;19911;-86
2022/08/10 01:15:02;;;;;;;;;;;15.80;70.90;;;;;;4913232;29;20412;-85
2022/08/10 01:17:36;;;;;;;;;;;15.80;71.00;;;;;;4931021;29;19910;-85
2022/08/10 01:20:02;;;;;;;;;;;15.80;70.90;;;;;;4913400;29;20685;-85
2022/08/10 01:22:31;;;;;;;;;;;15.80;70.70;;;;;;4946575;29;19917;-84
2022/08/10 01:25:08;;;;;;;;;;;15.70;70.80;;;;;;4928832;29;19907;-83
2022/08/10 01:27:43;;;;;;;;;;;15.70;70.80;;;;;;4932044;29;19961;-85
2022/08/10 01:30:11;;;;;;;;;;;15.70;71.20;;;;;;4931937;29;20272;-85
2022/08/10 01:32:36;;;;;;;;;;;15.70;71.20;;;;;;4913299;29;19966;-84
2022/08/10 01:35:06;;;;;;;;;;;15.70;71.80;;;;;;4920541;29;19914;-84
2022/08/10 01:37:33;;;;;;;;;;;15.60;71.50;;;;;;4947252;28;19952;-86
2022/08/10 01:40:01;;;;;;;;;;;15.60;71.50;;;;;;4915945;29;20389;-85
2022/08/10 01:42:28;;;;;;;;;;;15.50;71.80;;;;;;4902203;29;19998;-84
2022/08/10 01:44:59;;;;;;;;;;;15.50;73.00;;;;;;4918468;29;19943;-85
2022/08/10 01:50:19;;;;;;;;;;;15.40;72.80;;;;;;4933476;29;19917;-85
2022/08/10 01:52:46;;;;;;;;;;;15.40;73.10;;;;;;4912453;29;20391;-85
2022/08/10 01:55:12;;;;;;;;;;;15.40;72.80;;;;;;4912033;29;19923;-85
2022/08/10 01:57:40;;;;;;;;;;;15.30;73.20;;;;;;4905350;29;19977;-86
2022/08/10 02:00:06;;;;;;;;;;;15.30;73.00;;;;;;4935058;28;20568;-87
2022/08/10 02:02:32;;;;;;;;;;;15.30;72.90;;;;;;4916070;29;19926;-85
2022/08/10 02:05:00;;;;;;;;;;;15.30;73.50;;;;;;4916762;29;20371;-86
2022/08/10 02:07:27;;;;;;;;;;;15.30;73.60;;;;;;4913983;29;19914;-85
2022/08/10 02:09:55;;;;;;;;;;;15.30;74.10;;;;;;4899176;29;19915;-86
2022/08/10 02:12:23;;;;;;;;;;;15.30;73.90;;;;;;4931133;29;20327;-85
2022/08/10 02:14:59;;;;;;;;;;;15.30;74.10;;;;;;4915563;29;19921;-85
2022/08/10 02:17:34;;;;;;;;;;;15.20;74.20;;;;;;4923534;29;20006;-84
2022/08/10 02:20:07;;;;;;;;;;;15.20;74.00;;;;;;4923799;29;19946;-85
2022/08/10 02:22:34;;;;;;;;;;;15.20;74.20;;;;;;4919961;29;19982;-86
2022/08/10 02:25:00;;;;;;;;;;;15.20;74.20;;;;;;4913297;29;19922;-86
2022/08/10 02:27:26;;;;;;;;;;;15.10;73.80;;;;;;4946202;28;19911;-85
2022/08/10 02:29:53;;;;;;;;;;;15.10;73.70;;;;;;4929692;29;20377;-85
2022/08/10 02:32:21;;;;;;;;;;;15.10;73.90;;;;;;4944301;29;19918;-85
2022/08/10 02:34:49;;;;;;;;;;;15.00;73.80;;;;;;4930528;29;19925;-85
2022/08/10 02:37:15;;;;;;;;;;;15.00;73.80;;;;;;4917755;29;19914;-84
2022/08/10 02:39:41;;;;;;;;;;;15.00;74.20;;;;;;4915228;29;19911;-85
2022/08/10 02:42:10;;;;;;;;;;;14.90;74.40;;;;;;4930746;29;20330;-86
2022/08/10 02:44:48;;;;;;;;;;;14.90;74.20;;;;;;4938139;29;20018;-85
2022/08/10 02:47:25;;;;;;;;;;;14.90;74.20;;;;;;4920941;29;19911;-85
2022/08/10 02:50:05;;;;;;;;;;;14.90;74.40;;;;;;4921600;29;19917;-86
2022/08/10 02:52:36;;;;;;;;;;;14.80;75.30;;;;;;4929554;29;19911;-85
2022/08/10 02:55:04;;;;;;;;;;;14.80;76.00;;;;;;4913127;29;19919;-85
2022/08/10 02:57:35;;;;;;;;;;;14.80;76.90;;;;;;4932229;29;19915;-85
2022/08/10 03:00:03;;;;;;;;;;;14.70;76.90;;;;;;4913892;29;20390;-84
2022/08/10 03:02:33;;;;;;;;;;;14.70;76.50;;;;;;4930397;29;19975;-85
2022/08/10 03:05:00;;;;;;;;;;;14.60;77.40;;;;;;4948046;28;19919;-87
2022/08/10 03:07:28;;;;;;;;;;;14.50;77.50;;;;;;4947543;29;20002;-86
2022/08/10 03:09:54;;;;;;;;;;;14.50;77.90;;;;;;4912710;29;19911;-86
2022/08/10 03:12:20;;;;;;;;;;;14.40;77.50;;;;;;4927017;29;20399;-85
2022/08/10 03:14:47;;;;;;;;;;;14.40;77.60;;;;;;4931783;29;20009;-85
2022/08/10 03:17:14;;;;;;;;;;;14.40;77.80;;;;;;4926559;29;19915;-86
2022/08/10 03:19:40;;;;;;;;;;;14.40;78.00;;;;;;4947605;28;19958;-84
2022/08/10 03:22:07;;;;;;;;;;;14.40;78.30;;;;;;4921848;29;19977;-85
2022/08/10 03:24:33;;;;;;;;;;;14.40;78.10;;;;;;4931014;29;19954;-85
2022/08/10 03:26:59;;;;;;;;;;;14.40;77.90;;;;;;4948114;29;19919;-85
2022/08/10 03:29:25;;;;;;;;;;;14.40;77.30;;;;;;4912798;29;20629;-86
2022/08/10 03:31:51;;;;;;;;;;;14.40;77.80;;;;;;4916199;29;19969;-85
2022/08/10 03:34:18;;;;;;;;;;;14.40;77.80;;;;;;4931287;29;19925;-86
2022/08/10 03:36:43;;;;;;;;;;;14.40;78.40;;;;;;4913121;29;20536;-85
2022/08/10 03:39:09;;;;;;;;;;;14.40;79.00;;;;;;4921568;29;20009;-86
2022/08/10 03:41:37;;;;;;;;;;;14.30;78.50;;;;;;4934941;29;20010;-85
2022/08/10 03:44:04;;;;;;;;;;;14.30;78.50;;;;;;4932652;29;19962;-84
2022/08/10 03:46:32;;;;;;;;;;;14.20;79.00;;;;;;4945870;29;19922;-85
2022/08/10 03:49:00;;;;;;;;;;;14.20;79.90;;;;;;4935608;29;20572;-86
2022/08/10 03:51:25;;;;;;;;;;;14.20;78.80;;;;;;4942114;29;19910;-84
2022/08/10 03:53:51;;;;;;;;;;;14.10;79.70;;;;;;4916184;29;19925;-85
2022/08/10 03:56:17;;;;;;;;;;;14.10;79.00;;;;;;4925215;29;20326;-84
2022/08/10 03:58:43;;;;;;;;;;;14.00;78.90;;;;;;4951114;29;19946;-86
2022/08/10 04:01:09;;;;;;;;;;;14.00;80.10;;;;;;4934304;29;19919;-85
2022/08/10 04:03:35;;;;;;;;;;;14.00;80.20;;;;;;4919331;29;19915;-84
2022/08/10 04:06:01;;;;;;;;;;;13.90;80.20;;;;;;4922324;29;20372;-84
2022/08/10 04:08:27;;;;;;;;;;;13.90;80.90;;;;;;4915754;29;19911;-84
2022/08/10 04:10:52;;;;;;;;;;;13.90;81.60;;;;;;4920876;29;19965;-85
2022/08/10 04:13:18;;;;;;;;;;;13.80;81.40;;;;;;4919195;29;20013;-86
2022/08/10 04:15:43;;;;;;;;;;;13.80;81.60;;;;;;4918034;29;19915;-85
2022/08/10 04:18:09;;;;;;;;;;;13.80;82.60;;;;;;4919529;29;19922;-85
2022/08/10 04:20:48;;;;;;;;;;;13.70;82.20;;;;;;4934657;29;20423;-85
2022/08/10 04:23:25;;;;;;;;;;;13.70;82.20;;;;;;4915627;29;19917;-84
2022/08/10 04:25:51;;;;;;;;;;;13.60;82.30;;;;;;4907292;29;19915;-85
2022/08/10 04:28:17;;;;;;;;;;;13.70;83.10;;;;;;4916127;29;20321;-86
2022/08/10 04:30:44;;;;;;;;;;;13.60;82.90;;;;;;4926222;29;19911;-86
2022/08/10 04:33:12;;;;;;;;;;;13.60;82.90;;;;;;4911013;29;19911;-86
2022/08/10 04:35:38;;;;;;;;;;;13.70;84.20;;;;;;4918956;29;19950;-85
2022/08/10 04:38:04;;;;;;;;;;;13.70;83.40;;;;;;4935460;29;19958;-85
2022/08/10 04:40:30;;;;;;;;;;;13.70;83.00;;;;;;4918448;29;19914;-84
2022/08/10 04:42:57;;;;;;;;;;;13.70;83.60;;;;;;4933900;29;19948;-84
2022/08/10 04:45:23;;;;;;;;;;;13.80;83.80;;;;;;4916797;29;19911;-85
2022/08/10 04:47:48;;;;;;;;;;;13.80;83.60;;;;;;4950321;28;19970;-85
2022/08/10 04:50:14;;;;;;;;;;;13.90;84.30;;;;;;4915999;29;20327;-85
2022/08/10 04:52:39;;;;;;;;;;;13.90;84.90;;;;;;4930589;29;19934;-86
2022/08/10 04:55:05;;;;;;;;;;;13.90;85.40;;;;;;4941413;28;19918;-85
2022/08/10 04:57:31;;;;;;;;;;;14.00;85.70;;;;;;4903585;29;20016;-83
2022/08/10 04:59:57;;;;;;;;;;;14.00;86.40;;;;;;4931261;29;19919;-85
2022/08/10 05:02:23;;;;;;;;;;;14.10;85.60;;;;;;4932560;29;19918;-85
2022/08/10 05:04:48;;;;;;;;;;;14.10;85.70;;;;;;4933037;29;20548;-84
2022/08/10 05:07:14;;;;;;;;;;;14.20;86.30;;;;;;4930888;29;19942;-85
2022/08/10 05:09:40;;;;;;;;;;;14.20;86.30;;;;;;4933945;29;19911;-87
2022/08/10 05:12:07;;;;;;;;;;;14.30;86.00;;;;;;4928871;29;19911;-85
2022/08/10 05:14:32;;;;;;;;;;;14.30;86.20;;;;;;4913935;29;19923;-85
2022/08/10 05:16:58;;;;;;;;;;;14.40;86.10;;;;;;4928915;29;19917;-86
2022/08/10 05:19:25;;;;;;;;;;;14.40;86.80;;;;;;4949137;28;19914;-85
2022/08/10 05:21:50;;;;;;;;;;;14.50;86.90;;;;;;4932629;29;19914;-86
2022/08/10 05:24:16;;;;;;;;;;;14.50;86.50;;;;;;4917098;29;20286;-83
2022/08/10 05:26:42;;;;;;;;;;;14.60;86.00;;;;;;4930403;29;19919;-85
2022/08/10 05:29:07;;;;;;;;;;;14.70;85.90;;;;;;4942019;28;19922;-85
2022/08/10 05:31:33;;;;;;;;;;;14.70;86.20;;;;;;4916910;29;19915;-85
2022/08/10 05:33:59;;;;;;;;;;;14.80;86.60;;;;;;4917820;29;19922;-86
2022/08/10 05:36:25;;;;;;;;;;;15.00;86.10;;;;;;4923978;29;19974;-86
2022/08/10 05:38:51;;;;;;;;;;;15.20;85.80;;;;;;4914581;29;19946;-85
2022/08/10 05:41:16;;;;;;;;;;;15.40;84.70;;;;;;4930022;29;19957;-85
2022/08/10 05:43:43;;;;;;;;;;;15.80;84.00;;;;;;4948374;28;20406;-85
2022/08/10 05:46:08;;;;;;;;;;;16.20;81.70;;;;;;4920646;29;19914;-86
2022/08/10 05:48:35;;;;;;;;;;;16.50;80.90;;;;;;4917194;29;19919;-85
2022/08/10 05:51:02;;;;;;;;;;;17.00;79.50;;;;;;4920563;29;19921;-86
2022/08/10 05:53:27;;;;;;;;;;;17.50;77.90;;;;;;4918005;29;20327;-86
2022/08/10 05:55:53;;;;;;;;;;;18.00;77.20;;;;;;4914772;29;19919;-83
2022/08/10 05:58:19;;;;;;;;;;;18.50;75.20;;;;;;4908630;29;20388;-83
2022/08/10 06:00:45;;;;;;;;;;;18.90;73.00;;;;;;4922961;29;19961;-83
2022/08/10 06:03:13;;;;;;;;;;;19.40;71.80;;;;;;4949238;28;19915;-83
2022/08/10 06:05:39;;;;;;;;;;;19.80;70.20;;;;;;4917209;29;19919;-83
2022/08/10 06:08:14;;;;;;;;;;;20.30;67.70;;;;;;4906586;29;19911;-84
2022/08/10 06:10:40;;;;;;;;;;;20.70;65.30;;;;;;4931194;29;19915;-84
2022/08/10 06:15:55;;;;;;;;;;;21.70;60.60;;;;;;4941839;28;20005;-83
2022/08/10 06:18:22;;;;;;;;;;;22.20;59.80;;;;;;4916015;29;19933;-82
2022/08/10 06:20:48;;;;;;;;;;;22.70;58.40;;;;;;4918767;29;19915;-84
2022/08/10 06:23:14;;;;;;;;;;;23.10;57.50;;;;;;4929709;29;19911;-84
2022/08/10 06:25:40;;;;;;;;;;;23.50;56.00;;;;;;4943403;29;19949;-83
2022/08/10 06:28:07;;;;;;;;;;;23.90;54.60;;;;;;4913666;29;19920;-85
2022/08/10 06:30:34;;;;;;;;;;;24.30;53.60;;;;;;4916106;29;20477;-84
2022/08/10 06:33:01;;;;;;;;;;;24.60;53.00;;;;;;4912964;29;20028;-84
2022/08/10 06:35:28;;;;;;;;;;;25.00;52.40;;;;;;4941382;29;20299;-83
2022/08/10 06:37:56;;;;;;;;;;;25.30;50.80;;;;;;4942496;28;19911;-84
2022/08/10 06:40:23;;;;;;;;;;;25.60;51.20;;;;;;4932162;29;20006;-84
2022/08/10 06:42:49;;;;;;;;;;;25.90;50.10;;;;;;4932429;29;19966;-83
2022/08/10 06:45:17;;;;;;;;;;;26.30;49.50;;;;;;4925233;29;19921;-83
2022/08/10 06:47:54;;;;;;;;;;;26.60;49.30;;;;;;4933969;29;19919;-84
2022/08/10 06:50:22;;;;;;;;;;;26.90;48.20;;;;;;4933312;29;19911;-83
2022/08/10 06:52:50;;;;;;;;;;;27.30;48.20;;;;;;4934321;29;19925;-83
2022/08/10 06:55:17;;;;;;;;;;;27.60;47.50;;;;;;4935024;29;19970;-84
2022/08/10 06:57:43;;;;;;;;;;;27.90;46.80;;;;;;4934414;29;20375;-83
2022/08/10 07:00:10;;;;;;;;;;;28.30;46.30;;;;;;4949707;28;19918;-83
2022/08/10 07:02:41;;;;;;;;;;;28.60;45.80;;;;;;4910842;29;20367;-84
2022/08/10 07:05:09;;;;;;;;;;;29.00;45.00;;;;;;4921459;29;20309;-83
2022/08/10 07:07:35;;;;;;;;;;;29.30;44.50;;;;;;4929278;29;19915;-83
2022/08/10 07:10:01;;;;;;;;;;;29.60;44.20;;;;;;4913916;29;20386;-83
2022/08/10 07:12:27;;;;;;;;;;;29.80;43.20;;;;;;4932077;29;19974;-83
2022/08/10 07:14:53;;;;;;;;;;;29.90;43.20;;;;;;4919614;29;19947;-83
2022/08/10 07:17:20;;;;;;;;;;;30.00;43.70;;;;;;4921437;29;20349;-83
2022/08/10 07:19:47;;;;;;;;;;;29.90;42.20;;;;;;4922693;29;19918;-84
2022/08/10 07:22:14;;;;;;;;;;;29.60;42.10;;;;;;4955379;29;19923;-83
2022/08/10 07:24:40;;;;;;;;;;;29.30;43.30;;;;;;4936976;29;19966;-84
2022/08/10 07:27:07;;;;;;;;;;;29.10;44.20;;;;;;4945471;28;19923;-83
2022/08/10 07:29:33;;;;;;;;;;;29.30;43.80;;;;;;4920377;29;20371;-83
2022/08/10 07:31:59;;;;;;;;;;;29.50;43.20;;;;;;4951836;28;19921;-83
2022/08/10 07:34:25;;;;;;;;;;;29.80;42.90;;;;;;4936315;29;20001;-84
2022/08/10 07:36:52;;;;;;;;;;;29.80;43.20;;;;;;4936509;29;19961;-83
2022/08/10 07:39:23;;;;;;;;;;;29.90;43.20;;;;;;4938077;29;20375;-83
2022/08/10 07:41:51;;;;;;;;;;;30.20;41.30;;;;;;4929524;29;19934;-83
2022/08/10 07:44:18;;;;;;;;;;;30.20;41.20;;;;;;4920176;29;19911;-83
2022/08/10 07:46:45;;;;;;;;;;;30.10;41.80;;;;;;4929526;29;19918;-83
2022/08/10 07:49:16;;;;;;;;;;;30.10;42.30;;;;;;4916137;29;19922;-84
2022/08/10 07:51:42;;;;;;;;;;;30.30;42.20;;;;;;4941443;29;20367;-83
2022/08/10 07:54:14;;;;;;;;;;;30.40;41.70;;;;;;4932616;29;20574;-85
2022/08/10 07:56:42;;;;;;;;;;;30.30;41.70;;;;;;4928944;29;20013;-83
2022/08/10 07:59:13;;;;;;;;;;;29.90;42.40;;;;;;4917362;29;19919;-84
2022/08/10 08:01:49;;;;;;;;;;;29.70;42.60;;;;;;4944003;29;19910;-83
2022/08/10 08:04:16;;;;;;;;;;;29.40;42.60;;;;;;4935264;29;19978;-83
2022/08/10 08:06:43;;;;;;;;;;;29.00;43.80;;;;;;4919764;29;19914;-83
2022/08/10 08:09:10;;;;;;;;;;;28.70;43.30;;;;;;4932839;29;19915;-83
2022/08/10 08:11:36;;;;;;;;;;;28.40;43.80;;;;;;4943254;29;19915;-82
2022/08/10 08:14:04;;;;;;;;;;;28.00;44.50;;;;;;4931916;29;19919;-83
2022/08/10 08:16:30;;;;;;;;;;;27.80;45.80;;;;;;4938138;29;19922;-83
2022/08/10 08:18:58;;;;;;;;;;;27.70;45.60;;;;;;4933971;29;20394;-83
2022/08/10 08:21:24;;;;;;;;;;;27.60;45.40;;;;;;4923901;29;19911;-82
2022/08/10 08:23:50;;;;;;;;;;;27.50;46.20;;;;;;4949875;28;19922;-84
2022/08/10 08:26:17;;;;;;;;;;;27.40;45.20;;;;;;4919968;29;19926;-83
2022/08/10 08:28:44;;;;;;;;;;;27.20;46.10;;;;;;4917976;29;20032;-82
2022/08/10 08:31:12;;;;;;;;;;;27.10;46.80;;;;;;4932419;29;19915;-85
2022/08/10 08:33:38;;;;;;;;;;;26.70;45.90;;;;;;4934402;29;19926;-83
2022/08/10 08:36:05;;;;;;;;;;;26.50;47.00;;;;;;4948564;28;19992;-84
2022/08/10 08:38:31;;;;;;;;;;;26.30;47.10;;;;;;4917715;29;19922;-82
2022/08/10 08:41:06;;;;;;;;;;;26.10;46.90;;;;;;4920271;29;20299;-83
2022/08/10 08:43:35;;;;;;;;;;;26.10;47.80;;;;;;4921935;29;19915;-83
2022/08/10 08:46:03;;;;;;;;;;;26.10;47.90;;;;;;4929514;29;19913;-86
2022/08/10 08:48:45;;;;;;;;;;;26.20;46.70;;;;;;4933633;29;19997;-84
2022/08/10 08:51:29;;;;;;;;;;;26.10;46.30;;;;;;4932378;29;19911;-83
2022/08/10 08:54:14;;;;;;;;;;;26.20;47.30;;;;;;4940182;29;19997;-83
2022/08/10 08:56:43;;;;;;;;;;;26.40;44.80;;;;;;4945920;28;19925;-83
2022/08/10 08:59:35;;;;;;;;;;;26.40;46.10;;;;;;4916762;29;19967;-83
2022/08/10 09:02:06;;;;;;;;;;;26.40;44.80;;;;;;4932688;29;19933;-85
2022/08/10 09:04:39;;;;;;;;;;;26.30;43.70;;;;;;4948383;29;20434;-84
2022/08/10 09:07:24;;;;;;;;;;;26.30;42.90;;;;;;4949652;28;20426;-84
2022/08/10 09:10:03;;;;;;;;;;;26.30;44.70;;;;;;4933231;29;19917;-85
2022/08/10 09:12:47;;;;;;;;;;;26.30;43.40;;;;;;4930652;29;19965;-85
2022/08/10 09:15:13;;;;;;;;;;;26.20;43.80;;;;;;4931339;29;19958;-84
2022/08/10 09:17:45;;;;;;;;;;;26.10;43.00;;;;;;4948008;29;19917;-85
2022/08/10 09:20:17;;;;;;;;;;;25.80;43.00;;;;;;4915208;29;19954;-85
2022/08/10 09:23:02;;;;;;;;;;;25.60;43.20;;;;;;4928397;29;19911;-85
2022/08/10 09:25:35;;;;;;;;;;;25.50;44.90;;;;;;4930352;29;19966;-84
2022/08/10 09:28:04;;;;;;;;;;;25.30;44.40;;;;;;4932503;29;19911;-84
2022/08/10 09:30:42;;;;;;;;;;;25.30;44.70;;;;;;4930761;29;19942;-84
2022/08/10 09:33:14;;;;;;;;;;;25.40;44.00;;;;;;4915396;29;19957;-84
2022/08/10 09:35:49;;;;;;;;;;;25.60;44.60;;;;;;4931016;29;20282;-85
2022/08/10 09:38:32;;;;;;;;;;;25.60;44.20;;;;;;4915073;29;19974;-84
2022/08/10 09:41:10;;;;;;;;;;;25.70;41.50;;;;;;4918014;29;20344;-84
2022/08/10 09:43:45;;;;;;;;;;;25.60;41.30;;;;;;4927691;29;19915;-84
2022/08/10 09:46:15;;;;;;;;;;;25.60;43.40;;;;;;4940616;29;19911;-84
2022/08/10 09:48:59;;;;;;;;;;;25.60;42.10;;;;;;4931150;29;19910;-85
2022/08/10 09:51:44;;;;;;;;;;;25.60;42.60;;;;;;4936605;29;19982;-85
2022/08/10 09:54:13;;;;;;;;;;;25.60;41.70;;;;;;4915286;29;19915;-83
2022/08/10 09:56:57;;;;;;;;;;;25.40;42.20;;;;;;4921292;29;19969;-85
2022/08/10 09:59:46;;;;;;;;;;;25.30;40.90;;;;;;4919397;29;19910;-85
2022/08/10 10:02:14;;;;;;;;;;;25.30;40.90;;;;;;4914718;29;19917;-85
2022/08/10 10:04:51;;;;;;;;;;;25.20;43.40;;;;;;4939248;29;19958;-85
2022/08/10 10:07:24;;;;;;;;;;;25.20;43.70;;;;;;4930963;29;19910;-86
2022/08/10 10:10:01;;;;;;;;;;;25.20;43.30;;;;;;4915583;29;19960;-85
2022/08/10 10:12:30;;;;;;;;;;;25.30;42.50;;;;;;4932102;29;19970;-84
2022/08/10 10:17:59;;;;;;;;;;;25.10;40.40;;;;;;4947733;28;19946;-84
2022/08/10 10:20:27;;;;;;;;;;;25.00;40.90;;;;;;4915940;29;19910;-85
2022/08/10 10:22:57;;;;;;;;;;;25.00;43.00;;;;;;4930804;29;19914;-85
2022/08/10 10:25:28;;;;;;;;;;;25.10;44.40;;;;;;4914929;29;19945;-84
2022/08/10 10:28:12;;;;;;;;;;;25.20;43.10;;;;;;4912418;29;19915;-87
2022/08/10 10:30:57;;;;;;;;;;;25.20;42.30;;;;;;4923617;29;19990;-85
2022/08/10 10:33:34;;;;;;;;;;;25.30;43.20;;;;;;4931896;29;19925;-85
2022/08/10 10:36:00;;;;;;;;;;;25.40;43.30;;;;;;4918683;29;19911;-87
2022/08/10 10:38:36;;;;;;;;;;;25.60;42.70;;;;;;4931746;29;19906;-84
2022/08/10 10:41:21;;;;;;;;;;;25.70;42.50;;;;;;4918620;29;19914;-86
2022/08/10 10:43:47;;;;;;;;;;;25.70;43.10;;;;;;4915617;29;19915;-86
2022/08/10 10:46:16;;;;;;;;;;;25.80;44.40;;;;;;4930654;29;20395;-86
2022/08/10 10:49:01;;;;;;;;;;;25.90;43.90;;;;;;4946524;28;19938;-86
2022/08/10 10:51:32;;;;;;;;;;;26.00;43.60;;;;;;4914856;29;19917;-86
2022/08/10 10:54:03;;;;;;;;;;;26.00;43.10;;;;;;4912510;29;19922;-83
2022/08/10 10:56:47;;;;;;;;;;;26.10;44.40;;;;;;4922686;29;20010;-84
2022/08/10 10:59:16;;;;;;;;;;;26.20;44.40;;;;;;4913996;29;19917;-86
2022/08/10 11:01:41;;;;;;;;;;;26.40;44.00;;;;;;4941355;29;19907;-85
2022/08/10 11:04:10;;;;;;;;;;;26.50;42.20;;;;;;4929562;29;20435;-84
2022/08/10 11:06:49;;;;;;;;;;;26.50;42.80;;;;;;4940440;29;19911;-84
2022/08/10 11:09:35;;;;;;;;;;;26.60;43.40;;;;;;4904473;29;19939;-84
2022/08/10 11:12:05;;;;;;;;;;;26.50;43.50;;;;;;4908349;29;19911;-83
2022/08/10 11:14:34;;;;;;;;;;;26.50;41.90;;;;;;4932620;29;19918;-84
2022/08/10 11:17:04;;;;;;;;;;;26.50;43.40;;;;;;4947785;28;19917;-84
2022/08/10 11:19:33;;;;;;;;;;;26.60;44.10;;;;;;4928687;29;20295;-83
2022/08/10 11:22:15;;;;;;;;;;;26.50;41.90;;;;;;4940964;28;19921;-84
2022/08/10 11:24:48;;;;;;;;;;;26.40;43.20;;;;;;4929709;29;19958;-83
2022/08/10 11:27:37;;;;;;;;;;;26.40;43.10;;;;;;4914562;29;20367;-83
2022/08/10 11:30:26;;;;;;;;;;;26.50;44.40;;;;;;4911101;29;19935;-84
2022/08/10 11:33:22;;;;;;;;;;;26.50;41.80;;;;;;4920056;29;19996;-85
2022/08/10 11:36:07;;;;;;;;;;;26.40;41.80;;;;;;4944033;29;19918;-83
2022/08/10 11:38:40;;;;;;;;;;;26.30;40.80;;;;;;4897174;29;19911;-85
2022/08/10 11:41:16;;;;;;;;;;;26.20;41.10;;;;;;4936130;29;19910;-84
2022/08/10 11:43:45;;;;;;;;;;;26.00;41.90;;;;;;4916458;29;19922;-84
2022/08/10 11:46:18;;;;;;;;;;;26.00;43.00;;;;;;4920160;29;20338;-84
2022/08/10 11:48:51;;;;;;;;;;;26.00;42.00;;;;;;4914277;29;19911;-85
2022/08/10 11:51:21;;;;;;;;;;;26.10;41.70;;;;;;4926259;29;19910;-84
2022/08/10 11:53:50;;;;;;;;;;;26.20;40.90;;;;;;4912690;29;19926;-83
2022/08/10 11:56:22;;;;;;;;;;;26.20;40.60;;;;;;4937180;29;20352;-83
2022/08/10 12:01:33;;;;;;;;;;;26.10;40.80;;;;;;4943626;29;19986;-84
2022/08/10 12:04:06;;;;;;;;;;;26.10;42.00;;;;;;4918571;29;19957;-83
2022/08/10 12:06:34;;;;;;;;;;;26.00;42.50;;;;;;4941207;29;20749;-86
2022/08/10 12:09:00;;;;;;;;;;;25.90;41.60;;;;;;4915366;29;19962;-83
2022/08/10 12:11:27;;;;;;;;;;;25.90;42.80;;;;;;4918094;29;20021;-85
2022/08/10 12:14:08;;;;;;;;;;;25.80;43.10;;;;;;4934243;29;19914;-83
2022/08/10 12:16:37;;;;;;;;;;;25.70;43.40;;;;;;4941330;29;19911;-85
2022/08/10 12:19:02;;;;;;;;;;;25.70;42.70;;;;;;4915378;29;19918;-83
2022/08/10 12:21:31;;;;;;;;;;;25.70;44.30;;;;;;4941561;29;19911;-82
2022/08/10 12:24:01;;;;;;;;;;;25.70;44.80;;;;;;4943693;29;19933;-84
2022/08/10 12:26:31;;;;;;;;;;;25.70;42.70;;;;;;4946218;28;19934;-83
2022/08/10 12:29:01;;;;;;;;;;;25.80;43.70;;;;;;4899867;29;20017;-83
2022/08/10 12:31:33;;;;;;;;;;;26.00;42.80;;;;;;4928536;29;19915;-82
2022/08/10 12:34:04;;;;;;;;;;;26.10;42.50;;;;;;4940865;29;19966;-83
2022/08/10 12:36:38;;;;;;;;;;;26.10;41.30;;;;;;4925278;29;20315;-83
2022/08/10 12:39:10;;;;;;;;;;;26.20;42.60;;;;;;4934296;29;19918;-84
2022/08/10 12:41:38;;;;;;;;;;;26.10;42.50;;;;;;4930771;29;20216;-83
2022/08/10 12:44:22;;;;;;;;;;;26.10;42.70;;;;;;4903470;29;20616;-84
2022/08/10 12:47:00;;;;;;;;;;;25.90;41.90;;;;;;4941961;29;19952;-83
2022/08/10 12:49:38;;;;;;;;;;;25.90;41.60;;;;;;4903660;29;19954;-83
2022/08/10 12:52:07;;;;;;;;;;;25.90;41.60;;;;;;4926051;29;19971;-83
2022/08/10 12:54:35;;;;;;;;;;;26.00;43.50;;;;;;4917301;29;19922;-83
2022/08/10 12:57:12;;;;;;;;;;;26.10;43.20;;;;;;4933901;29;19915;-83
2022/08/10 12:59:41;;;;;;;;;;;26.50;41.60;;;;;;4914205;29;19918;-83
2022/08/10 13:02:10;;;;;;;;;;;26.70;40.50;;;;;;4929043;29;20391;-83
2022/08/10 13:04:38;;;;;;;;;;;26.90;41.90;;;;;;4944980;29;19914;-83
2022/08/10 13:07:05;;;;;;;;;;;27.30;41.10;;;;;;4949847;28;19966;-82
2022/08/10 13:09:31;;;;;;;;;;;27.60;39.60;;;;;;4916401;29;20346;-81
2022/08/10 13:12:02;;;;;;;;;;;27.70;38.70;;;;;;4939357;28;19915;-82
2022/08/10 13:14:28;;;;;;;;;;;27.70;38.40;;;;;;4933552;28;20303;-83
2022/08/10 13:16:55;;;;;;;;;;;27.60;39.80;;;;;;4943680;29;19918;-82
2022/08/10 13:19:21;;;;;;;;;;;27.40;39.60;;;;;;4933210;29;19911;-83
2022/08/10 13:21:48;;;;;;;;;;;27.10;40.20;;;;;;4917600;29;19918;-83
2022/08/10 13:24:15;;;;;;;;;;;26.80;40.00;;;;;;4949731;29;19922;-82
2022/08/10 13:27:07;;;;;;;;;;;26.70;40.10;;;;;;4920543;29;20263;-84
2022/08/10 13:29:36;;;;;;;;;;;26.60;40.20;;;;;;4923577;29;19991;-83
2022/08/10 13:32:03;;;;;;;;;;;26.40;41.10;;;;;;4931156;29;19914;-83
2022/08/10 13:34:29;;;;;;;;;;;26.40;39.80;;;;;;4911196;29;19998;-82
2022/08/10 13:36:55;;;;;;;;;;;26.30;41.00;;;;;;4947223;28;19918;-83
2022/08/10 13:39:23;;;;;;;;;;;26.20;40.60;;;;;;4967387;28;19918;-83
2022/08/10 13:41:50;;;;;;;;;;;26.20;39.60;;;;;;4914040;29;19970;-83
2022/08/10 13:44:27;;;;;;;;;;;26.30;39.70;;;;;;4914388;29;20466;-84
2022/08/10 13:46:53;;;;;;;;;;;26.30;40.00;;;;;;4944596;29;19915;-82
2022/08/10 13:49:20;;;;;;;;;;;26.40;40.60;;;;;;4902567;29;19922;-83
2022/08/10 13:51:46;;;;;;;;;;;26.50;39.80;;;;;;4917394;29;19915;-84
2022/08/10 13:54:12;;;;;;;;;;;26.60;39.40;;;;;;4917193;29;20131;-83
2022/08/10 13:56:40;;;;;;;;;;;26.70;38.40;;;;;;4931569;29;19925;-83
2022/08/10 13:59:06;;;;;;;;;;;26.80;38.80;;;;;;4944967;28;20399;-83
2022/08/10 14:01:35;;;;;;;;;;;27.00;41.40;;;;;;4931512;29;19915;-83
2022/08/10 14:04:04;;;;;;;;;;;27.10;39.20;;;;;;4917177;29;19969;-84
2022/08/10 14:06:32;;;;;;;;;;;27.20;40.20;;;;;;4916132;29;19922;-84
2022/08/10 14:09:09;;;;;;;;;;;27.30;39.20;;;;;;4905647;29;19918;-83
2022/08/10 14:11:38;;;;;;;;;;;27.30;40.20;;;;;;4933725;29;19922;-83
2022/08/10 14:14:07;;;;;;;;;;;27.30;40.40;;;;;;4949295;28;19918;-84
2022/08/10 14:16:33;;;;;;;;;;;27.30;39.70;;;;;;4923331;29;19921;-82
2022/08/10 14:19:02;;;;;;;;;;;27.40;39.70;;;;;;4917113;29;19911;-83
2022/08/10 14:21:28;;;;;;;;;;;27.40;39.90;;;;;;4929510;29;19912;-84
2022/08/10 14:23:54;;;;;;;;;;;27.20;39.70;;;;;;4923956;29;19922;-84
2022/08/10 14:26:24;;;;;;;;;;;27.10;38.80;;;;;;4934701;29;20001;-84
2022/08/10 14:28:56;;;;;;;;;;;27.10;39.70;;;;;;4929021;29;20414;-84
2022/08/10 14:31:24;;;;;;;;;;;27.10;39.70;;;;;;4937206;29;19958;-83
2022/08/10 14:33:53;;;;;;;;;;;27.00;39.70;;;;;;4912759;29;19919;-84
2022/08/10 14:36:42;;;;;;;;;;;26.90;40.40;;;;;;4928865;29;19918;-85
2022/08/10 14:39:12;;;;;;;;;;;26.70;39.70;;;;;;4916454;29;19929;-82
2022/08/10 14:41:38;;;;;;;;;;;26.70;39.60;;;;;;4948083;28;19914;-84